createdAt,value
2019-04-01T00:00:51.550Z,98113.20
2019-04-01T00:03:59.273Z,98120.93
2019-04-01T00:07:06.345Z,98113.36
2019-04-01T00:10:13.605Z,98115.23
2019-04-01T00:13:21.314Z,98104.97
2019-04-01T00:16:28.486Z,98104.97
2019-04-01T00:19:35.479Z,98101.39
2019-04-01T00:22:42.838Z,98101.39
2019-04-01T00:25:49.795Z,98116.90
2019-04-01T00:28:56.930Z,98116.73
2019-04-01T00:32:04.097Z,98117.58
2019-04-01T00:35:12.213Z,98123.00
2019-04-01T00:38:18.722Z,98119.04
2019-04-01T00:41:25.424Z,98115.41
2019-04-01T00:44:32.242Z,98097.16
2019-04-01T00:47:39.285Z,98130.03
2019-04-01T00:50:46.304Z,98120.98
2019-04-01T00:53:53.318Z,98115.91
2019-04-01T00:57:00.600Z,98111.61
2019-04-01T01:00:08.844Z,98115.12
2019-04-01T01:03:16.333Z,98115.12
2019-04-01T01:06:24.286Z,98111.37
2019-04-01T01:09:31.546Z,98109.77
2019-04-01T01:12:40.407Z,98106.26
2019-04-01T01:15:47.369Z,98106.26
2019-04-01T01:18:54.288Z,98105.73
2019-04-01T01:22:01.326Z,98104.10
2019-04-01T01:25:08.316Z,98110.55
2019-04-01T01:28:14.863Z,98109.77
2019-04-01T01:31:22.093Z,98102.75
2019-04-01T01:34:29.360Z,98101.69
2019-04-01T01:37:36.159Z,98104.63
2019-04-01T01:40:43.040Z,98110.01
2019-04-01T01:43:51.738Z,98107.56
2019-04-01T01:46:59.950Z,98102.45
2019-04-01T01:50:08.582Z,98103.52
2019-04-01T01:53:15.607Z,98102.16
2019-04-01T01:56:22.573Z,98084.02
2019-04-01T01:59:30.068Z,98102.05
2019-04-01T02:02:36.960Z,98102.05
2019-04-01T02:05:43.946Z,98102.00
2019-04-01T02:08:50.989Z,98103.26
2019-04-01T02:11:58.492Z,98107.50
2019-04-01T02:15:07.312Z,98100.70
2019-04-01T02:18:14.280Z,98100.37
2019-04-01T02:21:21.810Z,98099.75
2019-04-01T02:24:29.322Z,98094.30
2019-04-01T02:27:36.838Z,98096.92
2019-04-01T02:30:44.268Z,98097.70
2019-04-01T02:33:51.556Z,98096.82
2019-04-01T02:36:58.722Z,98101.83
2019-04-01T02:40:07.568Z,98101.83
2019-04-01T02:43:16.310Z,98099.34
2019-04-01T02:46:25.264Z,98092.83
2019-04-01T02:49:32.334Z,98099.77
2019-04-01T02:52:38.805Z,98096.72
2019-04-01T02:55:46.290Z,98096.97
2019-04-01T02:58:53.354Z,98094.77
2019-04-01T03:02:00.439Z,98092.02
2019-04-01T03:05:08.281Z,98090.56
2019-04-01T03:08:15.261Z,98092.94
2019-04-01T03:11:22.377Z,98090.42
2019-04-01T03:14:28.877Z,98089.91
2019-04-01T03:17:35.696Z,98085.55
2019-04-01T03:20:42.848Z,98085.17
2019-04-01T03:23:50.315Z,98077.36
2019-04-01T03:26:58.059Z,98082.63
2019-04-01T03:30:05.814Z,98082.63
2019-04-01T03:33:12.925Z,98079.33
2019-04-01T03:36:20.602Z,98080.12
2019-04-01T03:39:27.726Z,98080.30
2019-04-01T03:42:35.548Z,98088.05
2019-04-01T03:45:43.132Z,98089.50
2019-04-01T03:48:50.258Z,98089.50
2019-04-01T03:51:57.434Z,98085.64
2019-04-01T03:55:03.827Z,98087.80
2019-04-01T03:58:11.252Z,98089.09
2019-04-01T04:01:18.469Z,98090.63
2019-04-01T04:04:25.738Z,98085.48
2019-04-01T04:07:33.100Z,98067.67
2019-04-01T04:10:41.309Z,98091.24
2019-04-01T04:13:48.685Z,98090.36
2019-04-01T04:16:55.630Z,98096.50
2019-04-01T04:20:02.756Z,98079.91
2019-04-01T04:23:09.837Z,98079.91
2019-04-01T04:26:16.970Z,98101.95
2019-04-01T04:29:24.364Z,98100.53
2019-04-01T04:32:31.348Z,98093.28
2019-04-01T04:35:37.586Z,98103.99
2019-04-01T04:38:44.315Z,98106.83
2019-04-01T04:41:51.655Z,98101.28
2019-04-01T04:45:00.398Z,98101.28
2019-04-01T04:48:07.560Z,98106.56
2019-04-01T04:51:15.279Z,98095.39
2019-04-01T04:54:22.997Z,98095.39
2019-04-01T04:57:31.639Z,98103.25
2019-04-01T05:00:38.884Z,98090.74
2019-04-01T05:03:46.297Z,98090.74
2019-04-01T05:06:53.403Z,98103.47
2019-04-01T05:10:01.979Z,98103.25
2019-04-01T05:13:09.278Z,98111.02
2019-04-01T05:16:16.833Z,98106.48
2019-04-01T05:19:24.295Z,98111.32
2019-04-01T05:22:32.207Z,98116.49
2019-04-01T05:25:39.378Z,98113.59
2019-04-01T05:28:46.933Z,98112.59
2019-04-01T05:31:53.903Z,98109.69
2019-04-01T05:35:01.440Z,98116.77
2019-04-01T05:38:08.805Z,98112.78
2019-04-01T05:41:16.400Z,98116.65
2019-04-01T05:44:22.627Z,98110.55
2019-04-01T05:47:30.452Z,98118.72
2019-04-01T05:50:37.268Z,98112.62
2019-04-01T05:53:44.453Z,98117.00
2019-04-01T05:56:52.305Z,98116.55
2019-04-01T05:59:59.752Z,98102.42
2019-04-01T06:03:06.889Z,98102.42
2019-04-01T06:06:15.283Z,98120.61
2019-04-01T06:09:22.417Z,98119.09
2019-04-01T06:12:29.777Z,98112.31
2019-04-01T06:15:37.641Z,98112.31
2019-04-01T06:18:44.753Z,98117.56
2019-04-01T06:21:51.878Z,98115.57
2019-04-01T06:24:59.263Z,98117.31
2019-04-01T06:28:06.317Z,98116.60
2019-04-01T06:31:13.869Z,98119.48
2019-04-01T06:34:21.265Z,98112.16
2019-04-01T06:37:28.548Z,98115.88
2019-04-01T06:40:36.000Z,98123.97
2019-04-01T06:43:43.250Z,98124.44
2019-04-01T06:46:50.282Z,98119.00
2019-04-01T06:49:59.609Z,98110.02
2019-04-01T06:53:06.922Z,98102.95
2019-04-01T06:56:14.289Z,98102.95
2019-04-01T06:59:22.945Z,98099.55
2019-04-01T07:02:31.266Z,98099.83
2019-04-01T07:05:38.719Z,98101.93
2019-04-01T07:08:45.696Z,98104.73
2019-04-01T07:11:53.389Z,98091.52
2019-04-01T07:15:01.751Z,98097.89
2019-04-01T07:18:09.304Z,98088.78
2019-04-01T07:21:16.389Z,98086.34
2019-04-01T07:24:23.491Z,98086.84
2019-04-01T07:27:31.642Z,98076.45
2019-04-01T07:30:41.764Z,98079.77
2019-04-01T07:33:48.451Z,98086.48
2019-04-01T07:36:55.427Z,98081.98
2019-04-01T07:40:02.890Z,98083.32
2019-04-01T07:43:14.736Z,98074.80
2019-04-01T07:46:20.369Z,98078.06
2019-04-01T07:49:27.440Z,98079.55
2019-04-01T07:52:34.446Z,98077.99
2019-04-01T07:55:42.250Z,98078.91
2019-04-01T07:58:49.691Z,98068.20
2019-04-01T08:01:57.259Z,98072.04
2019-04-01T08:05:04.801Z,98071.41
2019-04-01T08:08:12.783Z,98068.10
2019-04-01T08:11:20.032Z,98068.67
2019-04-01T08:14:27.256Z,98067.86
2019-04-01T08:17:34.638Z,98062.34
2019-04-01T08:20:41.677Z,98068.85
2019-04-01T08:23:48.945Z,98072.58
2019-04-01T08:26:56.277Z,98075.44
2019-04-01T08:30:05.367Z,98067.25
2019-04-01T08:33:11.718Z,98064.52
2019-04-01T08:36:18.734Z,98058.27
2019-04-01T08:39:27.256Z,98054.25
2019-04-01T08:42:34.263Z,98046.49
2019-04-01T08:45:41.283Z,98039.17
2019-04-01T08:48:48.630Z,98040.39
2019-04-01T08:51:55.864Z,98048.13
2019-04-01T08:55:05.241Z,98044.74
2019-04-01T08:58:12.567Z,98055.63
2019-04-01T09:01:34.246Z,98043.61
2019-04-01T09:04:28.731Z,98028.63
2019-04-01T09:07:35.866Z,98028.05
2019-04-01T09:10:43.965Z,98037.17
2019-04-01T09:13:51.702Z,98040.39
2019-04-01T09:16:59.127Z,98023.64
2019-04-01T09:20:07.313Z,98029.18
2019-04-01T09:23:14.969Z,98029.06
2019-04-01T09:26:21.976Z,98035.17
2019-04-01T09:29:29.270Z,98036.75
2019-04-01T09:32:36.370Z,98018.14
2019-04-01T09:35:42.987Z,98009.64
2019-04-01T09:38:49.760Z,98019.47
2019-04-01T09:41:58.255Z,98014.61
2019-04-01T09:45:08.279Z,98008.16
2019-04-01T09:48:15.415Z,97995.78
2019-04-01T09:51:23.301Z,97997.73
2019-04-01T09:54:30.410Z,98001.02
2019-04-01T09:57:36.614Z,98000.60
2019-04-01T10:00:43.426Z,97987.23
2019-04-01T10:04:40.717Z,97976.39
2019-04-01T10:07:47.596Z,97971.23
2019-04-01T10:10:54.685Z,97962.73
2019-04-01T10:14:01.945Z,97957.87
2019-04-01T10:17:09.463Z,97968.81
2019-04-01T10:20:17.313Z,97967.53
2019-04-01T10:23:23.767Z,97950.48
2019-04-01T10:26:31.364Z,97959.17
2019-04-01T10:29:38.866Z,97925.27
2019-04-01T10:32:46.359Z,97925.27
2019-04-01T10:35:53.882Z,97953.08
2019-04-01T10:39:01.653Z,97953.96
2019-04-01T10:42:09.957Z,97932.17
2019-04-01T10:45:17.555Z,97932.17
2019-04-01T10:48:24.642Z,97930.09
2019-04-01T10:51:33.055Z,97930.09
2019-04-01T10:54:41.010Z,97931.98
2019-04-01T10:57:48.436Z,97940.33
2019-04-01T11:00:55.435Z,97747.69
2019-04-01T11:04:04.459Z,97901.03
2019-04-01T11:07:11.927Z,97913.19
2019-04-01T11:10:20.251Z,97920.87
2019-04-01T11:13:28.052Z,97910.31
2019-04-01T11:16:36.537Z,97902.26
2019-04-01T11:19:43.694Z,97898.88
2019-04-01T11:22:51.263Z,97898.88
2019-04-01T11:25:59.320Z,97900.45
2019-04-01T11:29:06.892Z,97883.00
2019-04-01T11:32:14.210Z,97879.66
2019-04-01T11:35:21.549Z,97869.13
2019-04-01T11:38:29.578Z,97874.48
2019-04-01T11:41:37.493Z,97866.91
2019-04-01T11:44:44.985Z,97838.05
2019-04-01T11:47:53.334Z,97838.05
2019-04-01T11:51:01.407Z,97851.96
2019-04-01T11:54:10.051Z,97810.19
2019-04-01T11:57:17.760Z,97810.19
2019-04-01T12:00:26.255Z,97837.03
2019-04-01T12:03:34.137Z,97849.20
2019-04-01T12:06:42.022Z,97838.98
2019-04-01T12:09:52.254Z,97851.80
2019-04-01T12:12:59.915Z,97851.80
2019-04-01T12:16:09.258Z,97840.27
2019-04-01T12:19:18.191Z,97820.30
2019-04-01T12:22:25.972Z,97825.44
2019-04-01T12:25:33.423Z,97822.71
2019-04-01T12:28:40.008Z,97814.46
2019-04-01T12:31:47.355Z,97826.05
2019-04-01T12:34:54.909Z,97813.45
2019-04-01T12:38:02.345Z,97792.38
2019-04-01T12:41:10.088Z,97796.31
2019-04-01T12:44:18.501Z,97788.80
2019-04-01T12:47:25.809Z,97792.77
2019-04-01T12:50:33.246Z,97792.05
2019-04-01T12:53:40.751Z,97788.39
2019-04-01T12:56:48.258Z,97785.72
2019-04-01T12:59:55.647Z,97779.11
2019-04-01T13:03:02.967Z,97773.13
2019-04-01T13:06:11.440Z,97778.42
2019-04-01T13:09:18.924Z,97781.51
2019-04-01T13:12:28.918Z,97770.38
2019-04-01T13:15:36.281Z,97760.72
2019-04-01T13:18:44.367Z,97729.52
2019-04-01T13:21:52.644Z,97729.52
2019-04-01T13:25:02.401Z,97746.27
2019-04-01T13:28:10.103Z,97736.66
2019-04-01T13:31:19.317Z,97723.70
2019-04-01T13:34:26.690Z,97723.70
2019-04-01T13:37:33.839Z,97712.74
2019-04-01T13:40:41.764Z,97712.74
2019-04-01T13:43:49.974Z,97729.02
2019-04-01T13:46:58.445Z,97718.48
2019-04-01T13:50:07.413Z,97680.43
2019-04-01T13:53:15.339Z,97680.43
2019-04-01T13:56:22.299Z,97702.50
2019-04-01T13:59:30.110Z,97714.92
2019-04-01T14:02:37.413Z,97706.66
2019-04-01T14:05:46.252Z,97712.52
2019-04-01T14:08:54.333Z,97698.40
2019-04-01T14:12:02.324Z,97695.12
2019-04-01T14:15:10.277Z,97722.72
2019-04-01T14:18:18.526Z,97676.42
2019-04-01T14:21:27.725Z,97693.67
2019-04-01T14:24:36.053Z,97685.87
2019-04-01T14:27:43.509Z,97685.42
2019-04-01T14:30:51.471Z,97684.43
2019-04-01T14:34:01.293Z,97672.95
2019-04-01T14:37:09.910Z,97650.92
2019-04-01T14:40:17.458Z,97650.92
2019-04-01T14:43:25.715Z,97672.68
2019-04-01T14:46:32.966Z,97670.44
2019-04-01T14:49:40.585Z,97654.25
2019-04-01T14:52:47.958Z,97647.09
2019-04-01T14:55:55.471Z,97651.89
2019-04-01T14:59:02.644Z,97661.79
2019-04-01T15:02:12.776Z,97661.79
2019-04-01T15:05:20.927Z,97644.61
2019-04-01T15:08:28.254Z,97647.44
2019-04-01T15:11:35.650Z,97637.59
2019-04-01T15:14:43.170Z,97642.55
2019-04-01T15:17:50.060Z,97646.63
2019-04-01T15:20:59.308Z,97639.23
2019-04-01T15:24:06.881Z,97622.91
2019-04-01T15:27:16.441Z,97619.77
2019-04-01T15:30:25.001Z,97620.84
2019-04-01T15:33:33.621Z,97609.70
2019-04-01T15:36:41.336Z,97605.39
2019-04-01T15:39:49.685Z,97614.56
2019-04-01T15:42:58.589Z,97606.13
2019-04-01T15:46:06.578Z,97592.34
2019-04-01T15:49:15.569Z,97592.34
2019-04-01T15:52:24.324Z,97596.11
2019-04-01T15:55:32.712Z,97596.45
2019-04-01T15:58:40.236Z,97587.72
2019-04-01T16:01:46.663Z,97589.59
2019-04-01T16:04:55.332Z,97577.25
2019-04-01T16:08:01.626Z,97577.25
2019-04-01T16:11:11.772Z,97569.37
2019-04-01T16:14:19.607Z,97573.56
2019-04-01T16:17:27.364Z,97577.33
2019-04-01T16:20:34.838Z,97575.70
2019-04-01T16:23:42.245Z,97575.03
2019-04-01T16:26:51.322Z,97566.70
2019-04-01T16:29:58.261Z,97559.80
2019-04-01T16:33:05.298Z,97569.44
2019-04-01T16:36:13.227Z,97562.95
2019-04-01T16:39:21.342Z,97560.73
2019-04-01T16:42:28.695Z,97565.58
2019-04-01T16:45:37.277Z,97571.16
2019-04-01T16:48:46.669Z,97578.44
2019-04-01T16:51:54.660Z,97571.41
2019-04-01T16:55:03.279Z,97572.97
2019-04-01T16:58:10.644Z,97573.11
2019-04-01T17:01:18.925Z,97579.34
2019-04-01T17:04:26.652Z,97579.34
2019-04-01T17:07:34.999Z,97574.31
2019-04-01T17:10:42.332Z,97571.72
2019-04-01T17:13:49.685Z,97571.37
2019-04-01T17:16:56.890Z,97571.13
2019-04-01T17:20:07.887Z,97579.27
2019-04-01T17:23:15.877Z,97579.38
2019-04-01T17:26:23.431Z,97580.16
2019-04-01T17:29:31.933Z,97581.92
2019-04-01T17:32:40.277Z,97582.44
2019-04-01T17:35:48.279Z,97584.98
2019-04-01T17:38:55.256Z,97589.42
2019-04-01T17:42:02.061Z,97586.80
2019-04-01T17:45:22.793Z,97595.45
2019-04-01T17:48:30.141Z,97593.20
2019-04-01T17:51:38.367Z,97597.38
2019-04-01T17:54:48.177Z,97586.34
2019-04-01T17:57:56.279Z,97586.34
2019-04-01T18:01:03.976Z,97603.45
2019-04-01T18:04:11.286Z,97605.33
2019-04-01T18:07:20.314Z,97609.64
2019-04-01T18:10:28.064Z,97609.64
2019-04-01T18:13:37.814Z,97611.30
2019-04-01T18:16:45.994Z,97611.24
2019-04-01T18:19:53.926Z,97618.97
2019-04-01T18:23:01.572Z,97619.09
2019-04-01T18:26:09.666Z,97627.89
2019-04-01T18:29:18.680Z,97627.89
2019-04-01T18:32:27.633Z,97627.43
2019-04-01T18:35:35.368Z,97633.77
2019-04-01T18:38:42.672Z,97637.40
2019-04-01T18:41:52.982Z,97643.96
2019-04-01T18:45:00.265Z,97645.63
2019-04-01T18:48:09.270Z,97642.52
2019-04-01T18:51:20.177Z,97653.56
2019-04-01T18:54:26.058Z,97659.52
2019-04-01T18:57:33.523Z,97658.14
2019-04-01T19:00:41.300Z,97654.56
2019-04-01T19:03:48.891Z,97656.09
2019-04-01T19:06:56.296Z,97656.34
2019-04-01T19:10:06.338Z,97647.93
2019-04-01T19:13:14.460Z,97647.58
2019-04-01T19:16:23.132Z,97645.87
2019-04-01T19:19:31.092Z,97648.99
2019-04-01T19:22:38.714Z,97642.95
2019-04-01T19:25:46.273Z,97648.83
2019-04-01T19:28:53.528Z,97645.48
2019-04-01T19:32:02.585Z,97635.78
2019-04-01T19:35:12.530Z,97632.12
2019-04-01T19:38:21.307Z,97634.66
2019-04-01T19:41:29.321Z,97649.28
2019-04-01T19:44:36.258Z,97649.28
2019-04-01T19:47:43.402Z,97643.98
2019-04-01T19:50:50.518Z,97637.97
2019-04-01T19:53:59.504Z,97637.97
2019-04-01T19:57:06.474Z,97627.80
2019-04-01T20:00:27.026Z,97627.80
2019-04-01T20:03:24.543Z,97625.96
2019-04-01T20:06:35.460Z,97624.70
2019-04-01T20:09:46.099Z,97620.38
2019-04-01T20:12:53.011Z,97618.86
2019-04-01T20:16:01.469Z,97596.96
2019-04-01T20:19:09.008Z,97615.25
2019-04-01T20:22:16.430Z,97615.25
2019-04-01T20:25:24.752Z,97607.19
2019-04-01T20:28:32.758Z,97603.71
2019-04-01T20:31:40.675Z,97602.14
2019-04-01T20:34:56.949Z,97603.02
2019-04-01T20:37:57.352Z,97606.03
2019-04-01T20:41:07.286Z,97602.02
2019-04-01T20:44:14.896Z,97598.55
2019-04-01T20:47:22.293Z,97599.65
2019-04-01T20:50:29.913Z,97591.09
2019-04-01T20:53:37.286Z,97591.63
2019-04-01T20:56:44.274Z,97590.03
2019-04-01T20:59:52.252Z,97567.77
2019-04-01T21:03:01.297Z,97567.77
2019-04-01T21:06:08.310Z,97584.97
2019-04-01T21:09:16.361Z,97579.86
2019-04-01T21:12:24.348Z,97579.91
2019-04-01T21:15:30.876Z,97579.91
2019-04-01T21:18:38.942Z,97578.58
2019-04-01T21:21:46.658Z,97569.72
2019-04-01T21:24:55.256Z,97564.88
2019-04-01T21:28:02.760Z,97564.33
2019-04-01T21:31:10.360Z,97555.23
2019-04-01T21:34:17.964Z,97555.22
2019-04-01T21:37:25.366Z,97555.52
2019-04-01T21:40:32.569Z,97551.50
2019-04-01T21:43:39.750Z,97544.23
2019-04-01T21:46:47.023Z,97544.23
2019-04-01T21:49:54.294Z,97545.88
2019-04-01T21:53:02.184Z,97539.70
2019-04-01T21:56:10.418Z,97543.73
2019-04-01T21:59:18.068Z,97537.28
2019-04-01T22:02:35.583Z,97530.55
2019-04-01T22:05:34.074Z,97531.63
2019-04-01T22:08:41.334Z,97524.91
2019-04-01T22:11:49.260Z,97520.88
2019-04-01T22:14:56.421Z,97513.36
2019-04-01T22:18:03.495Z,97505.03
2019-04-01T22:21:11.605Z,97507.72
2019-04-01T22:24:19.496Z,97505.56
2019-04-01T22:27:25.985Z,97499.67
2019-04-01T22:30:33.339Z,97498.33
2019-04-01T22:33:40.668Z,97493.77
2019-04-01T22:36:47.739Z,97491.05
2019-04-01T22:39:55.115Z,97492.14
2019-04-01T22:43:02.313Z,97481.13
2019-04-01T22:46:09.406Z,97472.80
2019-04-01T22:49:16.605Z,97469.86
2019-04-01T22:52:23.528Z,97469.86
2019-04-01T22:55:30.735Z,97465.27
2019-04-01T22:58:37.939Z,97459.91
2019-04-01T23:01:45.352Z,97458.03
2019-04-01T23:04:52.967Z,97450.51
2019-04-01T23:08:02.248Z,97450.51
2019-04-01T23:11:08.669Z,97442.74
2019-04-01T23:14:16.295Z,97435.47
2019-04-01T23:17:24.355Z,97435.47
2019-04-01T23:20:33.291Z,97425.27
2019-04-01T23:23:40.327Z,97430.91
2019-04-01T23:26:47.109Z,97423.67
2019-04-01T23:29:54.026Z,97412.13
2019-04-01T23:33:01.302Z,97414.53
2019-04-01T23:36:08.280Z,97400.84
2019-04-01T23:39:15.539Z,97407.55
2019-04-01T23:42:22.904Z,97403.27
2019-04-01T23:45:30.301Z,97398.72
2019-04-01T23:48:38.257Z,97393.31
2019-04-01T23:51:45.281Z,97393.31
2019-04-01T23:54:52.300Z,97389.58
2019-04-01T23:57:58.644Z,97388.52
